ซูริก, ประเทศสวิตเซอร์แลนด์

09:39 AM CEST วัน กันยายน 18, 2014 (GMT +0200)
Hirzenbach | Change Station
CLOSE
Current Station
Personal Weather Stations
Location: Zurich, Switzerland
Elevation: 1426 ft
Nearby Weather Stations

Elev 1426 ft 47.40 °N, 8.59 °E | Updated 9 seconds ago

Mostly Cloudy
มีเมฆคลุมเป็นส่วนใหญ่
60.5 ฟาเรนไฮน์
Feels Like 60.5 ฟาเรนไฮน์
N
0.0
ลม ความผันแปร ลม from ทางทิศเหนือและทิศตะวันออกเฉียงเหนือ
Gusts 0.0 mph

วันนี้
High -- | Low -- ฟาเรนไฮน์
--% Chance of Precip.
Yesterday
High -- | Low -- ฟาเรนไฮน์
Precip. -- นิ้ว
7:06 AM 7:32 PM
เดือนเสี้ยว, 29% visible
ความดัน 29.92 นิ้ว
ทัศนวิสัย 3.1 ไมล์
เมฆ Few 200 ft
มีเมฆคลุมเป็นบางส่วน 9000 ft
มีเมฆคลุมเป็นส่วนใหญ่ 12000 ft
อุณหภูมิที่อากาศอาจจับตัวเป็นหยาดน้ำค้าง 59 ฟาเรนไฮน์
ความชื้น 95%
Rainfall 0.00 นิ้ว
Snow Depth Not available.
UV 1 out of 12
Pollen Not available.
Air Quality Not available.
Flu Activity Not available.
METAR LSZH 180720Z 30003KT 260V330 5000 VCFG BR -RA FEW002 SCT090 BKN120 16/15 Q1013 NOSIG

More Conditions Fewer Conditions

ความดัน 29.92 นิ้ว
ทัศนวิสัย 3.1 ไมล์
เมฆ Few 200 ft
มีเมฆคลุมเป็นบางส่วน 9000 ft
มีเมฆคลุมเป็นส่วนใหญ่ 12000 ft
อุณหภูมิที่อากาศอาจจับตัวเป็นหยาดน้ำค้าง 59 ฟาเรนไฮน์
ความชื้น 95%
Rainfall 0.00 นิ้ว
Snow Depth Not available.
UV 1 out of 12
Pollen Not available.
Air Quality Not available.
Flu Activity Not available.
METAR LSZH 180720Z 30003KT 260V330 5000 VCFG BR -RA FEW002 SCT090 BKN120 16/15 Q1013 NOSIG

More Conditions Fewer Conditions

10-Day Weather Forecast

Almanac

ดาราศาสตร์

Sep. 18, 2014 Rise Set
Actual Time 7:06 AM CEST 7:32 PM CEST
Civil Twilight 6:36 AM CEST 8:02 PM CEST
Nautical Twilight 5:59 AM CEST 8:39 PM CEST
Astronomical Twilight 5:21 AM CEST 9:16 PM CEST
Moon 1:27 AM CEST 4:27 PM CEST
Length Of Visible Light 13h 26m
ความยาวของวัน
12h 25m
Tomorrow will be 3m 23s shorter.
เดือนเสี้ยว, 29% of the Moon is Illuminated
วันนี้
เดือนเสี้ยว
Sep 24
New
Oct 1
ไตรมาสแรก
Oct 8
พระจันทร์เต็มดวง
Oct 15
ไตรมาสล่าสุด

Yesterday's Extremes

Country Highs Country Lows

Community

WunderPhotos

Upload Photos

1,754,299 photos uploaded!

Nearby

Snow Depth

Not available.

Earthquake Activity

City Distance Mag. Time & Date
No recent earthquake activity has been reported nearby.
Minimum magnitude displayed is 2.5.

Coastal Water Temperatures

สถานที่ อุณหภูมิ
No Stations Reporting

Nearby Weather Stations